sensor_id;sensor_type;location;lat;lon;timestamp;P1;durP1;ratioP1;P2;durP2;ratioP2
25169;SDS011;13129;48.012;10.352;2022-11-15T04:30:53;3.65;;;3.28;;
25169;SDS011;13129;48.012;10.352;2022-11-15T04:33:19;3.75;;;3.45;;
25169;SDS011;13129;48.012;10.352;2022-11-15T04:35:45;4.72;;;3.40;;
25169;SDS011;13129;48.012;10.352;2022-11-15T04:38:32;3.53;;;3.22;;
25169;SDS011;13129;48.012;10.352;2022-11-15T04:40:58;3.50;;;3.20;;
25169;SDS011;13129;48.012;10.352;2022-11-15T04:43:24;4.07;;;3.60;;
25169;SDS011;13129;48.012;10.352;2022-11-15T04:45:50;4.25;;;3.78;;
25169;SDS011;13129;48.012;10.352;2022-11-15T04:48:15;3.88;;;3.47;;
25169;SDS011;13129;48.012;10.352;2022-11-15T04:50:41;4.80;;;4.20;;
25169;SDS011;13129;48.012;10.352;2022-11-15T04:53:07;5.53;;;4.05;;
25169;SDS011;13129;48.012;10.352;2022-11-15T04:55:32;4.95;;;3.80;;
25169;SDS011;13129;48.012;10.352;2022-11-15T04:57:59;5.68;;;4.60;;
25169;SDS011;13129;48.012;10.352;2022-11-15T05:00:26;5.53;;;3.92;;
25169;SDS011;13129;48.012;10.352;2022-11-15T05:02:53;5.53;;;4.18;;
25169;SDS011;13129;48.012;10.352;2022-11-15T05:05:40;7.95;;;7.15;;
25169;SDS011;13129;48.012;10.352;2022-11-15T05:08:07;8.23;;;7.35;;
25169;SDS011;13129;48.012;10.352;2022-11-15T05:10:33;10.38;;;9.30;;
25169;SDS011;13129;48.012;10.352;2022-11-15T05:12:58;6.28;;;4.45;;
25169;SDS011;13129;48.012;10.352;2022-11-15T05:15:24;5.95;;;4.20;;
25169;SDS011;13129;48.012;10.352;2022-11-15T05:17:50;6.78;;;5.25;;
25169;SDS011;13129;48.012;10.352;2022-11-15T05:20:16;9.48;;;6.15;;
25169;SDS011;13129;48.012;10.352;2022-11-15T05:22:41;7.63;;;6.53;;
25169;SDS011;13129;48.012;10.352;2022-11-15T05:25:07;4.55;;;4.15;;
25169;SDS011;13129;48.012;10.352;2022-11-15T05:27:33;4.85;;;4.45;;
25169;SDS011;13129;48.012;10.352;2022-11-15T05:30:00;4.93;;;3.70;;
25169;SDS011;13129;48.012;10.352;2022-11-15T05:32:25;7.78;;;5.18;;
25169;SDS011;13129;48.012;10.352;2022-11-15T05:34:52;4.78;;;3.92;;
25169;SDS011;13129;48.012;10.352;2022-11-15T05:37:19;4.22;;;3.83;;
25169;SDS011;13129;48.012;10.352;2022-11-15T05:39:45;5.47;;;3.55;;
25169;SDS011;13129;48.012;10.352;2022-11-15T05:42:14;4.68;;;4.28;;
25169;SDS011;13129;48.012;10.352;2022-11-15T05:44:41;5.40;;;4.75;;
25169;SDS011;13129;48.012;10.352;2022-11-15T05:47:14;6.10;;;5.57;;
25169;SDS011;13129;48.012;10.352;2022-11-15T05:49:49;8.35;;;6.38;;
25169;SDS011;13129;48.012;10.352;2022-11-15T05:52:16;9.63;;;6.88;;
25169;SDS011;13129;48.012;10.352;2022-11-15T05:54:45;6.47;;;5.55;;
25169;SDS011;13129;48.012;10.352;2022-11-15T05:57:11;6.25;;;5.53;;
25169;SDS011;13129;48.012;10.352;2022-11-15T05:59:40;5.80;;;5.30;;
25169;SDS011;13129;48.012;10.352;2022-11-15T06:02:08;6.25;;;5.55;;
25169;SDS011;13129;48.012;10.352;2022-11-15T06:04:34;9.60;;;6.88;;
25169;SDS011;13129;48.012;10.352;2022-11-15T06:07:00;7.18;;;6.47;;
25169;SDS011;13129;48.012;10.352;2022-11-15T06:09:26;7.82;;;6.57;;
25169;SDS011;13129;48.012;10.352;2022-11-15T06:11:51;6.90;;;6.25;;
25169;SDS011;13129;48.012;10.352;2022-11-15T06:14:17;7.50;;;6.78;;
25169;SDS011;13129;48.012;10.352;2022-11-15T06:16:43;8.18;;;7.35;;
25169;SDS011;13129;48.012;10.352;2022-11-15T06:19:21;6.70;;;6.10;;
25169;SDS011;13129;48.012;10.352;2022-11-15T06:21:47;6.47;;;5.53;;
25169;SDS011;13129;48.012;10.352;2022-11-15T06:24:15;7.60;;;6.10;;
25169;SDS011;13129;48.012;10.352;2022-11-15T06:26:41;6.22;;;5.63;;
25169;SDS011;13129;48.012;10.352;2022-11-15T06:29:07;7.30;;;5.90;;
25169;SDS011;13129;48.012;10.352;2022-11-15T06:31:33;7.97;;;5.10;;
25169;SDS011;13129;48.012;10.352;2022-11-15T06:33:59;6.03;;;5.00;;
25169;SDS011;13129;48.012;10.352;2022-11-15T06:36:25;6.53;;;3.70;;
25169;SDS011;13129;48.012;10.352;2022-11-15T06:38:50;8.00;;;3.40;;
25169;SDS011;13129;48.012;10.352;2022-11-15T06:41:16;6.45;;;3.70;;
25169;SDS011;13129;48.012;10.352;2022-11-15T06:43:42;5.13;;;3.92;;
25169;SDS011;13129;48.012;10.352;2022-11-15T06:46:08;6.00;;;3.15;;
25169;SDS011;13129;48.012;10.352;2022-11-15T06:48:35;4.10;;;3.65;;
25169;SDS011;13129;48.012;10.352;2022-11-15T06:51:01;4.70;;;3.00;;
25169;SDS011;13129;48.012;10.352;2022-11-15T06:53:29;6.10;;;3.45;;
25169;SDS011;13129;48.012;10.352;2022-11-15T06:55:59;4.97;;;4.55;;
25169;SDS011;13129;48.012;10.352;2022-11-15T07:00:51;11.30;;;4.85;;
25169;SDS011;13129;48.012;10.352;2022-11-15T07:03:17;5.63;;;4.47;;
25169;SDS011;13129;48.012;10.352;2022-11-15T07:05:50;10.23;;;5.20;;
25169;SDS011;13129;48.012;10.352;2022-11-15T07:08:19;5.28;;;4.40;;
25169;SDS011;13129;48.012;10.352;2022-11-15T07:10:45;5.70;;;4.10;;
25169;SDS011;13129;48.012;10.352;2022-11-15T07:13:11;4.60;;;3.90;;
25169;SDS011;13129;48.012;10.352;2022-11-15T07:15:36;5.43;;;4.90;;
25169;SDS011;13129;48.012;10.352;2022-11-15T07:18:02;8.60;;;6.95;;
25169;SDS011;13129;48.012;10.352;2022-11-15T07:20:28;7.35;;;6.43;;
25169;SDS011;13129;48.012;10.352;2022-11-15T07:23:00;8.43;;;5.88;;
25169;SDS011;13129;48.012;10.352;2022-11-15T07:25:45;7.05;;;5.38;;
25169;SDS011;13129;48.012;10.352;2022-11-15T07:28:10;7.90;;;5.72;;
25169;SDS011;13129;48.012;10.352;2022-11-15T07:30:36;6.63;;;6.00;;
25169;SDS011;13129;48.012;10.352;2022-11-15T07:33:02;11.93;;;8.38;;
25169;SDS011;13129;48.012;10.352;2022-11-15T07:35:28;11.25;;;7.00;;
25169;SDS011;13129;48.012;10.352;2022-11-15T07:40:24;5.43;;;3.72;;
25169;SDS011;13129;48.012;10.352;2022-11-15T07:42:51;4.28;;;3.88;;
25169;SDS011;13129;48.012;10.352;2022-11-15T07:45:20;7.43;;;4.65;;
25169;SDS011;13129;48.012;10.352;2022-11-15T07:47:48;8.95;;;7.07;;
25169;SDS011;13129;48.012;10.352;2022-11-15T07:50:15;7.72;;;6.30;;
25169;SDS011;13129;48.012;10.352;2022-11-15T07:52:41;8.63;;;7.13;;
25169;SDS011;13129;48.012;10.352;2022-11-15T07:55:07;10.18;;;6.70;;
25169;SDS011;13129;48.012;10.352;2022-11-15T07:57:34;4.57;;;4.00;;
25169;SDS011;13129;48.012;10.352;2022-11-15T07:59:59;4.90;;;3.50;;
25169;SDS011;13129;48.012;10.352;2022-11-15T08:02:25;7.63;;;6.53;;
25169;SDS011;13129;48.012;10.352;2022-11-15T08:04:51;8.38;;;7.63;;
25169;SDS011;13129;48.012;10.352;2022-11-15T08:07:16;3.88;;;3.58;;
25169;SDS011;13129;48.012;10.352;2022-11-15T08:09:42;4.82;;;3.53;;
25169;SDS011;13129;48.012;10.352;2022-11-15T08:12:07;3.53;;;3.22;;
25169;SDS011;13129;48.012;10.352;2022-11-15T08:14:34;4.10;;;3.80;;
25169;SDS011;13129;48.012;10.352;2022-11-15T08:17:00;5.20;;;3.67;;
25169;SDS011;13129;48.012;10.352;2022-11-15T08:19:25;4.90;;;3.40;;
25169;SDS011;13129;48.012;10.352;2022-11-15T08:21:51;5.80;;;3.60;;
25169;SDS011;13129;48.012;10.352;2022-11-15T08:24:17;4.82;;;3.65;;
25169;SDS011;13129;48.012;10.352;2022-11-15T08:26:42;5.47;;;3.20;;
25169;SDS011;13129;48.012;10.352;2022-11-15T08:29:08;4.75;;;4.25;;
25169;SDS011;13129;48.012;10.352;2022-11-15T08:31:35;7.03;;;3.70;;
25169;SDS011;13129;48.012;10.352;2022-11-15T08:34:04;3.83;;;3.28;;
25169;SDS011;13129;48.012;10.352;2022-11-15T08:36:30;3.85;;;3.30;;
25169;SDS011;13129;48.012;10.352;2022-11-15T08:38:56;3.67;;;3.03;;
25169;SDS011;13129;48.012;10.352;2022-11-15T08:41:26;3.83;;;3.45;;
25169;SDS011;13129;48.012;10.352;2022-11-15T08:43:56;4.55;;;3.25;;
25169;SDS011;13129;48.012;10.352;2022-11-15T08:46:22;8.10;;;3.28;;
25169;SDS011;13129;48.012;10.352;2022-11-15T08:48:48;3.25;;;2.92;;
25169;SDS011;13129;48.012;10.352;2022-11-15T08:51:14;3.30;;;3.00;;
25169;SDS011;13129;48.012;10.352;2022-11-15T08:53:39;4.05;;;3.22;;
25169;SDS011;13129;48.012;10.352;2022-11-15T08:56:09;4.47;;;3.17;;
25169;SDS011;13129;48.012;10.352;2022-11-15T08:58:36;3.97;;;3.28;;
25169;SDS011;13129;48.012;10.352;2022-11-15T09:01:02;3.25;;;2.65;;
25169;SDS011;13129;48.012;10.352;2022-11-15T09:03:28;4.15;;;3.75;;
25169;SDS011;13129;48.012;10.352;2022-11-15T09:05:58;9.70;;;5.93;;
25169;SDS011;13129;48.012;10.352;2022-11-15T09:08:25;15.98;;;11.32;;
25169;SDS011;13129;48.012;10.352;2022-11-15T09:10:55;6.87;;;5.20;;
25169;SDS011;13129;48.012;10.352;2022-11-15T09:13:21;6.60;;;4.63;;
25169;SDS011;13129;48.012;10.352;2022-11-15T09:15:47;5.85;;;4.50;;
25169;SDS011;13129;48.012;10.352;2022-11-15T09:18:13;8.27;;;5.30;;
25169;SDS011;13129;48.012;10.352;2022-11-15T09:20:38;5.25;;;4.63;;
25169;SDS011;13129;48.012;10.352;2022-11-15T09:23:04;4.07;;;3.72;;
25169;SDS011;13129;48.012;10.352;2022-11-15T09:25:31;4.70;;;3.88;;
25169;SDS011;13129;48.012;10.352;2022-11-15T09:27:57;4.80;;;3.58;;
25169;SDS011;13129;48.012;10.352;2022-11-15T09:30:24;3.53;;;3.22;;
25169;SDS011;13129;48.012;10.352;2022-11-15T09:32:50;4.22;;;3.83;;
25169;SDS011;13129;48.012;10.352;2022-11-15T09:35:16;3.45;;;3.10;;
25169;SDS011;13129;48.012;10.352;2022-11-15T09:37:42;4.15;;;3.78;;
25169;SDS011;13129;48.012;10.352;2022-11-15T09:40:09;5.25;;;4.18;;
25169;SDS011;13129;48.012;10.352;2022-11-15T09:43:18;4.78;;;4.30;;
25169;SDS011;13129;48.012;10.352;2022-11-15T09:51:26;4.20;;;3.80;;
25169;SDS011;13129;48.012;10.352;2022-11-15T09:54:00;4.28;;;3.88;;
25169;SDS011;13129;48.012;10.352;2022-11-15T09:56:42;3.90;;;3.50;;
25169;SDS011;13129;48.012;10.352;2022-11-15T09:59:27;4.55;;;3.75;;
25169;SDS011;13129;48.012;10.352;2022-11-15T10:02:33;4.22;;;3.60;;
25169;SDS011;13129;48.012;10.352;2022-11-15T10:05:30;4.45;;;3.78;;
25169;SDS011;13129;48.012;10.352;2022-11-15T10:08:13;3.53;;;3.22;;
25169;SDS011;13129;48.012;10.352;2022-11-15T10:11:07;6.07;;;3.90;;
25169;SDS011;13129;48.012;10.352;2022-11-15T10:13:41;3.17;;;2.88;;
25169;SDS011;13129;48.012;10.352;2022-11-15T10:25:11;3.85;;;2.58;;
25169;SDS011;13129;48.012;10.352;2022-11-15T10:28:01;3.88;;;2.97;;
25169;SDS011;13129;48.012;10.352;2022-11-15T10:30:51;4.13;;;3.83;;
25169;SDS011;13129;48.012;10.352;2022-11-15T10:33:20;3.40;;;2.83;;
25169;SDS011;13129;48.012;10.352;2022-11-15T10:35:48;2.90;;;2.70;;
25169;SDS011;13129;48.012;10.352;2022-11-15T10:38:13;2.20;;;2.10;;
25169;SDS011;13129;48.012;10.352;2022-11-15T10:40:39;2.78;;;2.58;;
25169;SDS011;13129;48.012;10.352;2022-11-15T10:45:35;3.65;;;2.70;;
25169;SDS011;13129;48.012;10.352;2022-11-15T10:50:36;3.08;;;2.88;;
25169;SDS011;13129;48.012;10.352;2022-11-15T10:53:03;3.65;;;2.80;;
25169;SDS011;13129;48.012;10.352;2022-11-15T10:55:37;2.55;;;2.35;;
25169;SDS011;13129;48.012;10.352;2022-11-15T10:58:06;2.75;;;2.55;;
25169;SDS011;13129;48.012;10.352;2022-11-15T11:01:12;3.60;;;2.47;;
25169;SDS011;13129;48.012;10.352;2022-11-15T11:03:40;4.72;;;3.30;;
25169;SDS011;13129;48.012;10.352;2022-11-15T11:08:36;2.70;;;2.47;;
25169;SDS011;13129;48.012;10.352;2022-11-15T11:11:03;2.92;;;2.72;;
25169;SDS011;13129;48.012;10.352;2022-11-15T11:13:32;4.15;;;2.53;;
25169;SDS011;13129;48.012;10.352;2022-11-15T11:21:35;4.53;;;2.90;;
25169;SDS011;13129;48.012;10.352;2022-11-15T11:24:38;3.28;;;2.97;;
25169;SDS011;13129;48.012;10.352;2022-11-15T11:35:08;3.90;;;3.50;;
25169;SDS011;13129;48.012;10.352;2022-11-15T11:37:49;4.75;;;3.38;;
25169;SDS011;13129;48.012;10.352;2022-11-15T11:48:38;3.55;;;3.08;;
25169;SDS011;13129;48.012;10.352;2022-11-15T11:52:08;4.15;;;3.33;;
25169;SDS011;13129;48.012;10.352;2022-11-15T11:54:18;5.55;;;2.90;;
25169;SDS011;13129;48.012;10.352;2022-11-15T11:56:49;5.38;;;3.40;;
25169;SDS011;13129;48.012;10.352;2022-11-15T12:01:53;4.05;;;3.10;;
25169;SDS011;13129;48.012;10.352;2022-11-15T12:06:53;3.03;;;2.83;;
25169;SDS011;13129;48.012;10.352;2022-11-15T12:09:28;5.82;;;3.00;;
25169;SDS011;13129;48.012;10.352;2022-11-15T12:12:04;5.60;;;3.08;;
25169;SDS011;13129;48.012;10.352;2022-11-15T12:17:17;3.33;;;3.05;;
25169;SDS011;13129;48.012;10.352;2022-11-15T12:19:47;2.83;;;2.63;;
25169;SDS011;13129;48.012;10.352;2022-11-15T12:24:47;6.88;;;4.57;;
25169;SDS011;13129;48.012;10.352;2022-11-15T12:29:56;3.22;;;2.88;;
25169;SDS011;13129;48.012;10.352;2022-11-15T12:32:28;4.55;;;3.22;;
25169;SDS011;13129;48.012;10.352;2022-11-15T12:34:58;4.20;;;3.17;;
25169;SDS011;13129;48.012;10.352;2022-11-15T12:37:59;3.47;;;3.17;;
25169;SDS011;13129;48.012;10.352;2022-11-15T12:40:24;4.18;;;3.78;;
25169;SDS011;13129;48.012;10.352;2022-11-15T12:45:38;4.88;;;4.38;;
25169;SDS011;13129;48.012;10.352;2022-11-15T12:58:47;4.90;;;4.40;;
25169;SDS011;13129;48.012;10.352;2022-11-15T13:06:48;6.40;;;4.97;;
25169;SDS011;13129;48.012;10.352;2022-11-15T13:12:02;5.82;;;5.18;;
25169;SDS011;13129;48.012;10.352;2022-11-15T13:14:38;5.60;;;4.60;;
25169;SDS011;13129;48.012;10.352;2022-11-15T13:22:13;8.45;;;6.32;;
25169;SDS011;13129;48.012;10.352;2022-11-15T13:24:59;7.15;;;5.45;;
25169;SDS011;13129;48.012;10.352;2022-11-15T13:27:26;6.00;;;5.43;;
25169;SDS011;13129;48.012;10.352;2022-11-15T13:29:52;6.03;;;5.28;;
25169;SDS011;13129;48.012;10.352;2022-11-15T13:32:18;6.57;;;5.72;;
25169;SDS011;13129;48.012;10.352;2022-11-15T13:34:48;7.78;;;5.95;;
25169;SDS011;13129;48.012;10.352;2022-11-15T13:39:46;6.55;;;5.85;;
25169;SDS011;13129;48.012;10.352;2022-11-15T13:42:20;7.43;;;6.47;;
25169;SDS011;13129;48.012;10.352;2022-11-15T13:44:56;7.20;;;5.82;;
25169;SDS011;13129;48.012;10.352;2022-11-15T13:47:24;7.03;;;6.32;;
25169;SDS011;13129;48.012;10.352;2022-11-15T13:49:52;5.88;;;5.32;;
25169;SDS011;13129;48.012;10.352;2022-11-15T13:52:18;7.43;;;6.68;;
25169;SDS011;13129;48.012;10.352;2022-11-15T13:59:47;6.15;;;5.55;;
25169;SDS011;13129;48.012;10.352;2022-11-15T14:02:17;5.00;;;4.38;;
25169;SDS011;13129;48.012;10.352;2022-11-15T14:04:46;6.57;;;4.65;;
25169;SDS011;13129;48.012;10.352;2022-11-15T14:07:16;6.32;;;4.82;;
25169;SDS011;13129;48.012;10.352;2022-11-15T14:09:43;5.13;;;4.63;;
25169;SDS011;13129;48.012;10.352;2022-11-15T14:15:02;7.75;;;7.00;;
25169;SDS011;13129;48.012;10.352;2022-11-15T14:17:51;7.22;;;6.53;;
25169;SDS011;13129;48.012;10.352;2022-11-15T14:20:26;7.30;;;6.43;;
25169;SDS011;13129;48.012;10.352;2022-11-15T14:22:56;7.05;;;6.00;;
25169;SDS011;13129;48.012;10.352;2022-11-15T14:25:26;7.80;;;5.82;;
25169;SDS011;13129;48.012;10.352;2022-11-15T14:30:54;8.70;;;7.35;;
25169;SDS011;13129;48.012;10.352;2022-11-15T14:35:54;9.45;;;7.90;;
25169;SDS011;13129;48.012;10.352;2022-11-15T14:38:22;8.55;;;7.75;;
25169;SDS011;13129;48.012;10.352;2022-11-15T14:40:48;6.80;;;6.10;;
25169;SDS011;13129;48.012;10.352;2022-11-15T14:43:22;8.88;;;7.97;;
25169;SDS011;13129;48.012;10.352;2022-11-15T14:45:48;9.65;;;7.63;;
25169;SDS011;13129;48.012;10.352;2022-11-15T14:48:14;9.35;;;7.63;;
25169;SDS011;13129;48.012;10.352;2022-11-15T14:50:39;7.80;;;6.97;;
25169;SDS011;13129;48.012;10.352;2022-11-15T14:53:05;7.18;;;6.53;;
25169;SDS011;13129;48.012;10.352;2022-11-15T14:55:34;7.25;;;6.55;;
25169;SDS011;13129;48.012;10.352;2022-11-15T14:58:04;8.55;;;6.57;;
25169;SDS011;13129;48.012;10.352;2022-11-15T15:00:33;9.35;;;6.43;;
25169;SDS011;13129;48.012;10.352;2022-11-15T15:03:00;7.53;;;6.20;;
25169;SDS011;13129;48.012;10.352;2022-11-15T15:05:34;7.35;;;6.45;;
25169;SDS011;13129;48.012;10.352;2022-11-15T15:08:02;8.18;;;6.80;;
25169;SDS011;13129;48.012;10.352;2022-11-15T15:10:31;9.43;;;8.52;;
25169;SDS011;13129;48.012;10.352;2022-11-15T15:12:58;10.50;;;9.40;;
25169;SDS011;13129;48.012;10.352;2022-11-15T15:15:25;10.90;;;9.77;;
25169;SDS011;13129;48.012;10.352;2022-11-15T15:17:56;10.70;;;9.45;;
25169;SDS011;13129;48.012;10.352;2022-11-15T15:20:21;8.85;;;8.05;;
25169;SDS011;13129;48.012;10.352;2022-11-15T15:22:47;11.48;;;9.55;;
25169;SDS011;13129;48.012;10.352;2022-11-15T15:25:20;10.52;;;9.07;;
25169;SDS011;13129;48.012;10.352;2022-11-15T15:27:46;9.90;;;8.07;;
25169;SDS011;13129;48.012;10.352;2022-11-15T15:30:12;9.55;;;7.60;;
25169;SDS011;13129;48.012;10.352;2022-11-15T15:32:38;11.20;;;7.28;;
25169;SDS011;13129;48.012;10.352;2022-11-15T15:35:03;10.68;;;8.40;;
25169;SDS011;13129;48.012;10.352;2022-11-15T15:37:29;11.85;;;9.95;;
25169;SDS011;13129;48.012;10.352;2022-11-15T15:39:58;10.60;;;9.10;;
25169;SDS011;13129;48.012;10.352;2022-11-15T15:42:25;12.80;;;10.18;;
25169;SDS011;13129;48.012;10.352;2022-11-15T15:44:51;20.15;;;14.30;;
25169;SDS011;13129;48.012;10.352;2022-11-15T15:47:17;20.88;;;13.45;;
25169;SDS011;13129;48.012;10.352;2022-11-15T15:52:13;14.48;;;10.45;;
25169;SDS011;13129;48.012;10.352;2022-11-15T15:54:39;12.35;;;9.95;;
25169;SDS011;13129;48.012;10.352;2022-11-15T15:57:06;11.40;;;10.15;;
25169;SDS011;13129;48.012;10.352;2022-11-15T15:59:34;13.02;;;11.40;;
25169;SDS011;13129;48.012;10.352;2022-11-15T16:02:00;13.13;;;11.75;;
25169;SDS011;13129;48.012;10.352;2022-11-15T16:04:25;19.30;;;16.88;;
25169;SDS011;13129;48.012;10.352;2022-11-15T16:06:51;15.38;;;13.77;;
25169;SDS011;13129;48.012;10.352;2022-11-15T16:09:19;12.80;;;9.73;;
25169;SDS011;13129;48.012;10.352;2022-11-15T16:12:08;12.32;;;10.45;;
25169;SDS011;13129;48.012;10.352;2022-11-15T16:14:33;17.00;;;13.43;;
25169;SDS011;13129;48.012;10.352;2022-11-15T16:16:59;16.48;;;12.57;;
25169;SDS011;13129;48.012;10.352;2022-11-15T16:19:25;17.80;;;14.30;;
25169;SDS011;13129;48.012;10.352;2022-11-15T16:21:50;20.38;;;14.95;;
25169;SDS011;13129;48.012;10.352;2022-11-15T16:24:19;15.48;;;13.88;;
25169;SDS011;13129;48.012;10.352;2022-11-15T16:26:45;12.98;;;11.48;;
25169;SDS011;13129;48.012;10.352;2022-11-15T16:29:13;12.20;;;10.52;;
25169;SDS011;13129;48.012;10.352;2022-11-15T16:31:38;11.52;;;9.15;;
25169;SDS011;13129;48.012;10.352;2022-11-15T16:34:04;13.20;;;11.98;;
25169;SDS011;13129;48.012;10.352;2022-11-15T16:36:31;16.50;;;12.70;;
25169;SDS011;13129;48.012;10.352;2022-11-15T16:38:59;16.33;;;12.73;;
25169;SDS011;13129;48.012;10.352;2022-11-15T16:41:28;16.15;;;13.45;;
25169;SDS011;13129;48.012;10.352;2022-11-15T16:43:53;14.57;;;11.15;;
25169;SDS011;13129;48.012;10.352;2022-11-15T16:46:20;14.02;;;11.07;;
25169;SDS011;13129;48.012;10.352;2022-11-15T16:48:47;13.68;;;10.23;;
25169;SDS011;13129;48.012;10.352;2022-11-15T16:51:14;12.15;;;10.23;;
25169;SDS011;13129;48.012;10.352;2022-11-15T16:53:40;9.38;;;8.38;;
25169;SDS011;13129;48.012;10.352;2022-11-15T16:56:39;10.25;;;8.80;;
25169;SDS011;13129;48.012;10.352;2022-11-15T16:58:59;8.70;;;6.93;;
25169;SDS011;13129;48.012;10.352;2022-11-15T17:01:27;12.65;;;8.23;;
25169;SDS011;13129;48.012;10.352;2022-11-15T17:03:54;10.20;;;8.60;;
25169;SDS011;13129;48.012;10.352;2022-11-15T17:06:21;12.00;;;8.95;;
25169;SDS011;13129;48.012;10.352;2022-11-15T17:08:47;11.20;;;9.55;;
25169;SDS011;13129;48.012;10.352;2022-11-15T17:11:13;13.35;;;10.10;;
25169;SDS011;13129;48.012;10.352;2022-11-15T17:13:41;12.40;;;9.60;;
25169;SDS011;13129;48.012;10.352;2022-11-15T17:16:08;13.18;;;11.23;;
25169;SDS011;13129;48.012;10.352;2022-11-15T17:18:35;16.13;;;11.73;;
25169;SDS011;13129;48.012;10.352;2022-11-15T17:21:05;16.13;;;12.55;;
25169;SDS011;13129;48.012;10.352;2022-11-15T17:23:32;19.63;;;13.95;;
25169;SDS011;13129;48.012;10.352;2022-11-15T17:25:59;15.20;;;12.38;;
25169;SDS011;13129;48.012;10.352;2022-11-15T17:28:27;14.45;;;12.57;;
25169;SDS011;13129;48.012;10.352;2022-11-15T17:30:52;14.63;;;12.95;;
25169;SDS011;13129;48.012;10.352;2022-11-15T17:33:18;16.98;;;13.70;;
25169;SDS011;13129;48.012;10.352;2022-11-15T17:35:44;17.05;;;13.93;;
25169;SDS011;13129;48.012;10.352;2022-11-15T17:38:09;14.85;;;11.68;;
25169;SDS011;13129;48.012;10.352;2022-11-15T17:40:35;16.10;;;14.23;;
25169;SDS011;13129;48.012;10.352;2022-11-15T17:43:34;17.40;;;13.60;;
25169;SDS011;13129;48.012;10.352;2022-11-15T17:48:28;14.82;;;13.18;;
25169;SDS011;13129;48.012;10.352;2022-11-15T17:50:58;15.07;;;12.10;;
25169;SDS011;13129;48.012;10.352;2022-11-15T17:53:25;13.50;;;12.10;;
25169;SDS011;13129;48.012;10.352;2022-11-15T17:55:52;14.52;;;13.02;;
25169;SDS011;13129;48.012;10.352;2022-11-15T17:58:18;13.13;;;11.77;;
25169;SDS011;13129;48.012;10.352;2022-11-15T18:00:44;12.25;;;10.95;;
25169;SDS011;13129;48.012;10.352;2022-11-15T18:03:11;12.95;;;11.55;;
25169;SDS011;13129;48.012;10.352;2022-11-15T18:05:36;13.45;;;11.95;;
25169;SDS011;13129;48.012;10.352;2022-11-15T18:08:03;11.50;;;9.65;;
25169;SDS011;13129;48.012;10.352;2022-11-15T18:10:29;11.80;;;10.52;;
25169;SDS011;13129;48.012;10.352;2022-11-15T18:12:54;11.88;;;10.30;;
25169;SDS011;13129;48.012;10.352;2022-11-15T18:15:20;13.23;;;11.82;;
25169;SDS011;13129;48.012;10.352;2022-11-15T18:17:45;11.13;;;9.95;;
25169;SDS011;13129;48.012;10.352;2022-11-15T18:20:11;20.30;;;14.15;;
25169;SDS011;13129;48.012;10.352;2022-11-15T18:22:37;14.30;;;12.82;;
25169;SDS011;13129;48.012;10.352;2022-11-15T18:25:03;14.63;;;12.20;;
25169;SDS011;13129;48.012;10.352;2022-11-15T18:27:29;13.55;;;11.32;;
25169;SDS011;13129;48.012;10.352;2022-11-15T18:29:55;11.77;;;10.43;;
25169;SDS011;13129;48.012;10.352;2022-11-15T18:32:20;16.88;;;12.57;;
25169;SDS011;13129;48.012;10.352;2022-11-15T18:34:46;12.80;;;11.02;;
25169;SDS011;13129;48.012;10.352;2022-11-15T18:37:11;23.67;;;15.00;;
25169;SDS011;13129;48.012;10.352;2022-11-15T18:39:37;18.20;;;14.23;;
25169;SDS011;13129;48.012;10.352;2022-11-15T18:42:03;14.90;;;12.57;;
25169;SDS011;13129;48.012;10.352;2022-11-15T18:44:29;12.30;;;10.73;;
25169;SDS011;13129;48.012;10.352;2022-11-15T18:46:55;13.07;;;10.38;;
25169;SDS011;13129;48.012;10.352;2022-11-15T18:49:21;18.02;;;12.38;;
25169;SDS011;13129;48.012;10.352;2022-11-15T18:51:46;16.48;;;13.23;;
25169;SDS011;13129;48.012;10.352;2022-11-15T18:54:13;22.52;;;13.18;;
25169;SDS011;13129;48.012;10.352;2022-11-15T18:56:40;14.55;;;11.15;;
25169;SDS011;13129;48.012;10.352;2022-11-15T18:59:09;10.07;;;8.65;;
25169;SDS011;13129;48.012;10.352;2022-11-15T19:01:37;10.60;;;8.95;;
25169;SDS011;13129;48.012;10.352;2022-11-15T19:04:06;10.20;;;9.05;;
25169;SDS011;13129;48.012;10.352;2022-11-15T19:06:38;9.88;;;8.25;;
25169;SDS011;13129;48.012;10.352;2022-11-15T19:09:06;14.32;;;10.48;;
25169;SDS011;13129;48.012;10.352;2022-11-15T19:11:33;13.68;;;9.65;;
25169;SDS011;13129;48.012;10.352;2022-11-15T19:14:01;16.23;;;12.55;;
25169;SDS011;13129;48.012;10.352;2022-11-15T19:16:38;15.70;;;12.32;;
25169;SDS011;13129;48.012;10.352;2022-11-15T19:19:06;16.52;;;12.55;;
25169;SDS011;13129;48.012;10.352;2022-11-15T19:21:35;21.67;;;14.77;;
25169;SDS011;13129;48.012;10.352;2022-11-15T19:24:02;15.98;;;12.57;;
25169;SDS011;13129;48.012;10.352;2022-11-15T19:26:28;12.93;;;11.15;;
25169;SDS011;13129;48.012;10.352;2022-11-15T19:28:58;12.25;;;10.95;;
25169;SDS011;13129;48.012;10.352;2022-11-15T19:31:25;10.45;;;9.43;;
25169;SDS011;13129;48.012;10.352;2022-11-15T19:33:52;10.35;;;8.32;;
25169;SDS011;13129;48.012;10.352;2022-11-15T19:36:20;9.68;;;8.02;;
25169;SDS011;13129;48.012;10.352;2022-11-15T19:38:58;8.93;;;7.38;;
25169;SDS011;13129;48.012;10.352;2022-11-15T19:41:25;9.00;;;7.03;;
25169;SDS011;13129;48.012;10.352;2022-11-15T19:43:51;7.90;;;6.00;;
25169;SDS011;13129;48.012;10.352;2022-11-15T19:46:18;8.25;;;6.15;;
25169;SDS011;13129;48.012;10.352;2022-11-15T19:48:45;5.45;;;4.88;;
25169;SDS011;13129;48.012;10.352;2022-11-15T19:51:12;6.40;;;5.50;;
25169;SDS011;13129;48.012;10.352;2022-11-15T19:53:39;6.22;;;5.63;;
25169;SDS011;13129;48.012;10.352;2022-11-15T19:58:36;6.57;;;5.63;;
25169;SDS011;13129;48.012;10.352;2022-11-15T20:01:04;6.47;;;5.63;;
25169;SDS011;13129;48.012;10.352;2022-11-15T20:03:50;6.53;;;5.25;;
25169;SDS011;13129;48.012;10.352;2022-11-15T20:06:26;6.25;;;5.65;;
25169;SDS011;13129;48.012;10.352;2022-11-15T20:08:54;5.95;;;5.35;;
25169;SDS011;13129;48.012;10.352;2022-11-15T20:11:20;7.85;;;6.45;;
25169;SDS011;13129;48.012;10.352;2022-11-15T20:13:46;6.63;;;5.90;;
25169;SDS011;13129;48.012;10.352;2022-11-15T20:16:19;6.60;;;5.95;;
25169;SDS011;13129;48.012;10.352;2022-11-15T20:18:46;7.50;;;6.18;;
25169;SDS011;13129;48.012;10.352;2022-11-15T20:21:13;8.30;;;7.05;;
25169;SDS011;13129;48.012;10.352;2022-11-15T20:23:39;8.20;;;6.72;;
25169;SDS011;13129;48.012;10.352;2022-11-15T20:26:05;9.27;;;7.30;;
25169;SDS011;13129;48.012;10.352;2022-11-15T20:28:32;7.30;;;6.60;;
25169;SDS011;13129;48.012;10.352;2022-11-15T20:30:58;10.60;;;8.35;;
25169;SDS011;13129;48.012;10.352;2022-11-15T20:33:24;9.38;;;8.10;;
25169;SDS011;13129;48.012;10.352;2022-11-15T20:35:51;10.48;;;8.75;;
25169;SDS011;13129;48.012;10.352;2022-11-15T20:38:17;5.82;;;5.25;;
25169;SDS011;13129;48.012;10.352;2022-11-15T20:40:44;5.65;;;4.13;;
25169;SDS011;13129;48.012;10.352;2022-11-15T20:43:11;4.22;;;3.83;;
25169;SDS011;13129;48.012;10.352;2022-11-15T20:45:38;4.57;;;4.18;;
25169;SDS011;13129;48.012;10.352;2022-11-15T20:48:06;5.18;;;4.68;;
25169;SDS011;13129;48.012;10.352;2022-11-15T20:50:33;5.40;;;4.90;;
25169;SDS011;13129;48.012;10.352;2022-11-15T20:52:59;5.57;;;4.43;;
25169;SDS011;13129;48.012;10.352;2022-11-15T20:55:25;5.25;;;4.75;;
25169;SDS011;13129;48.012;10.352;2022-11-15T20:57:51;5.63;;;4.90;;
25169;SDS011;13129;48.012;10.352;2022-11-15T21:00:17;5.78;;;4.53;;